sensor_id;sensor_type;location;lat;lon;timestamp;P1;durP1;ratioP1;P2;durP2;ratioP2
76995;SDS011;65929;49.062;10.338;2023-07-29T00:00:17;8.52;;;4.78;;
76995;SDS011;65929;49.062;10.338;2023-07-29T00:01:19;7.50;;;4.80;;
76995;SDS011;65929;49.062;10.338;2023-07-29T00:02:20;7.03;;;4.70;;
76995;SDS011;65929;49.062;10.338;2023-07-29T00:03:22;8.10;;;4.70;;
76995;SDS011;65929;49.062;10.338;2023-07-29T00:04:23;10.30;;;4.70;;
76995;SDS011;65929;49.062;10.338;2023-07-29T00:05:24;9.00;;;5.10;;
76995;SDS011;65929;49.062;10.338;2023-07-29T00:06:26;7.18;;;4.45;;
76995;SDS011;65929;49.062;10.338;2023-07-29T00:07:27;7.72;;;4.63;;
76995;SDS011;65929;49.062;10.338;2023-07-29T00:08:29;7.22;;;4.40;;
76995;SDS011;65929;49.062;10.338;2023-07-29T00:09:30;6.65;;;4.30;;
76995;SDS011;65929;49.062;10.338;2023-07-29T00:10:31;5.70;;;3.97;;
76995;SDS011;65929;49.062;10.338;2023-07-29T00:11:37;5.68;;;4.28;;
76995;SDS011;65929;49.062;10.338;2023-07-29T00:12:38;6.47;;;4.38;;
76995;SDS011;65929;49.062;10.338;2023-07-29T00:13:39;7.30;;;4.30;;
76995;SDS011;65929;49.062;10.338;2023-07-29T00:14:40;9.20;;;4.65;;
76995;SDS011;65929;49.062;10.338;2023-07-29T00:15:41;7.22;;;4.40;;
76995;SDS011;65929;49.062;10.338;2023-07-29T00:16:42;5.93;;;4.22;;
76995;SDS011;65929;49.062;10.338;2023-07-29T00:17:43;6.60;;;4.10;;
76995;SDS011;65929;49.062;10.338;2023-07-29T00:18:44;8.88;;;4.38;;
76995;SDS011;65929;49.062;10.338;2023-07-29T00:19:45;7.60;;;4.30;;
76995;SDS011;65929;49.062;10.338;2023-07-29T00:20:46;5.85;;;3.97;;
76995;SDS011;65929;49.062;10.338;2023-07-29T00:21:47;6.50;;;3.70;;
76995;SDS011;65929;49.062;10.338;2023-07-29T00:22:48;6.28;;;3.88;;
76995;SDS011;65929;49.062;10.338;2023-07-29T00:23:56;6.82;;;3.97;;
76995;SDS011;65929;49.062;10.338;2023-07-29T00:24:57;6.03;;;3.72;;
76995;SDS011;65929;49.062;10.338;2023-07-29T00:26:02;5.90;;;4.40;;
76995;SDS011;65929;49.062;10.338;2023-07-29T00:27:06;5.60;;;3.88;;
76995;SDS011;65929;49.062;10.338;2023-07-29T00:28:07;6.32;;;3.88;;
76995;SDS011;65929;49.062;10.338;2023-07-29T00:29:08;6.72;;;3.90;;
76995;SDS011;65929;49.062;10.338;2023-07-29T00:30:09;5.75;;;3.90;;
76995;SDS011;65929;49.062;10.338;2023-07-29T00:31:14;7.72;;;3.85;;
76995;SDS011;65929;49.062;10.338;2023-07-29T00:32:15;6.75;;;3.35;;
76995;SDS011;65929;49.062;10.338;2023-07-29T00:33:16;6.07;;;3.78;;
76995;SDS011;65929;49.062;10.338;2023-07-29T00:34:21;6.45;;;3.75;;
76995;SDS011;65929;49.062;10.338;2023-07-29T00:35:22;5.78;;;3.30;;
76995;SDS011;65929;49.062;10.338;2023-07-29T00:36:22;7.32;;;3.65;;
76995;SDS011;65929;49.062;10.338;2023-07-29T00:37:24;4.53;;;3.13;;
76995;SDS011;65929;49.062;10.338;2023-07-29T00:38:25;4.82;;;3.00;;
76995;SDS011;65929;49.062;10.338;2023-07-29T00:39:27;4.85;;;3.42;;
76995;SDS011;65929;49.062;10.338;2023-07-29T00:40:28;6.15;;;3.35;;
76995;SDS011;65929;49.062;10.338;2023-07-29T00:41:30;6.15;;;3.55;;
76995;SDS011;65929;49.062;10.338;2023-07-29T00:42:31;4.43;;;3.25;;
76995;SDS011;65929;49.062;10.338;2023-07-29T00:43:32;8.07;;;3.33;;
76995;SDS011;65929;49.062;10.338;2023-07-29T00:44:33;4.68;;;3.20;;
76995;SDS011;65929;49.062;10.338;2023-07-29T00:45:34;6.50;;;4.00;;
76995;SDS011;65929;49.062;10.338;2023-07-29T00:46:35;5.65;;;3.47;;
76995;SDS011;65929;49.062;10.338;2023-07-29T00:47:40;5.22;;;2.95;;
76995;SDS011;65929;49.062;10.338;2023-07-29T00:48:42;5.05;;;3.25;;
76995;SDS011;65929;49.062;10.338;2023-07-29T00:49:43;4.60;;;2.75;;
76995;SDS011;65929;49.062;10.338;2023-07-29T00:50:45;4.40;;;3.13;;
76995;SDS011;65929;49.062;10.338;2023-07-29T00:51:46;3.70;;;2.85;;
76995;SDS011;65929;49.062;10.338;2023-07-29T00:52:48;3.97;;;3.10;;
76995;SDS011;65929;49.062;10.338;2023-07-29T00:53:52;3.50;;;2.80;;
76995;SDS011;65929;49.062;10.338;2023-07-29T00:54:55;6.80;;;3.17;;
76995;SDS011;65929;49.062;10.338;2023-07-29T00:55:56;4.80;;;3.47;;
76995;SDS011;65929;49.062;10.338;2023-07-29T00:57:00;6.07;;;3.25;;
76995;SDS011;65929;49.062;10.338;2023-07-29T00:58:01;5.05;;;3.13;;
76995;SDS011;65929;49.062;10.338;2023-07-29T00:59:04;4.85;;;3.15;;
76995;SDS011;65929;49.062;10.338;2023-07-29T01:00:05;5.63;;;3.50;;
76995;SDS011;65929;49.062;10.338;2023-07-29T01:01:08;5.45;;;3.20;;
76995;SDS011;65929;49.062;10.338;2023-07-29T01:02:09;5.15;;;3.03;;
76995;SDS011;65929;49.062;10.338;2023-07-29T01:03:11;6.35;;;3.17;;
76995;SDS011;65929;49.062;10.338;2023-07-29T01:04:11;5.10;;;3.40;;
76995;SDS011;65929;49.062;10.338;2023-07-29T01:05:13;4.63;;;2.97;;
76995;SDS011;65929;49.062;10.338;2023-07-29T01:06:17;6.10;;;3.13;;
76995;SDS011;65929;49.062;10.338;2023-07-29T01:07:26;5.18;;;3.17;;
76995;SDS011;65929;49.062;10.338;2023-07-29T01:08:31;5.60;;;3.13;;
76995;SDS011;65929;49.062;10.338;2023-07-29T01:09:40;5.50;;;3.50;;
76995;SDS011;65929;49.062;10.338;2023-07-29T01:10:54;5.53;;;2.88;;
76995;SDS011;65929;49.062;10.338;2023-07-29T01:12:06;6.47;;;3.10;;
76995;SDS011;65929;49.062;10.338;2023-07-29T01:13:17;4.72;;;3.00;;
76995;SDS011;65929;49.062;10.338;2023-07-29T01:14:26;4.95;;;3.15;;
76995;SDS011;65929;49.062;10.338;2023-07-29T01:15:36;5.07;;;3.33;;
76995;SDS011;65929;49.062;10.338;2023-07-29T01:16:44;6.07;;;3.40;;
76995;SDS011;65929;49.062;10.338;2023-07-29T01:17:52;5.63;;;3.03;;
76995;SDS011;65929;49.062;10.338;2023-07-29T01:18:55;6.38;;;3.55;;
76995;SDS011;65929;49.062;10.338;2023-07-29T01:19:59;5.00;;;3.05;;
76995;SDS011;65929;49.062;10.338;2023-07-29T01:21:07;8.65;;;3.10;;
76995;SDS011;65929;49.062;10.338;2023-07-29T01:22:09;7.10;;;3.25;;
76995;SDS011;65929;49.062;10.338;2023-07-29T01:23:11;6.07;;;3.13;;
76995;SDS011;65929;49.062;10.338;2023-07-29T01:24:14;4.65;;;3.50;;
76995;SDS011;65929;49.062;10.338;2023-07-29T01:25:14;5.22;;;3.13;;
76995;SDS011;65929;49.062;10.338;2023-07-29T01:26:15;6.57;;;3.92;;
76995;SDS011;65929;49.062;10.338;2023-07-29T01:27:16;6.30;;;3.47;;
76995;SDS011;65929;49.062;10.338;2023-07-29T01:28:17;6.90;;;3.63;;
76995;SDS011;65929;49.062;10.338;2023-07-29T01:29:19;5.13;;;3.42;;
76995;SDS011;65929;49.062;10.338;2023-07-29T01:30:20;7.70;;;3.63;;
76995;SDS011;65929;49.062;10.338;2023-07-29T01:31:28;5.00;;;3.40;;
76995;SDS011;65929;49.062;10.338;2023-07-29T01:32:36;6.75;;;3.30;;
76995;SDS011;65929;49.062;10.338;2023-07-29T01:33:42;7.50;;;3.70;;
76995;SDS011;65929;49.062;10.338;2023-07-29T01:34:51;6.68;;;4.38;;
76995;SDS011;65929;49.062;10.338;2023-07-29T01:36:01;9.75;;;5.95;;
76995;SDS011;65929;49.062;10.338;2023-07-29T01:37:04;9.23;;;4.53;;
76995;SDS011;65929;49.062;10.338;2023-07-29T01:38:09;8.98;;;4.20;;
76995;SDS011;65929;49.062;10.338;2023-07-29T01:39:15;8.93;;;4.07;;
76995;SDS011;65929;49.062;10.338;2023-07-29T01:40:17;13.30;;;3.80;;
76995;SDS011;65929;49.062;10.338;2023-07-29T01:41:22;14.05;;;4.00;;
76995;SDS011;65929;49.062;10.338;2023-07-29T01:42:25;21.38;;;4.68;;
76995;SDS011;65929;49.062;10.338;2023-07-29T01:43:26;25.23;;;5.15;;
76995;SDS011;65929;49.062;10.338;2023-07-29T01:44:28;14.90;;;4.30;;
76995;SDS011;65929;49.062;10.338;2023-07-29T01:45:29;18.38;;;4.28;;
76995;SDS011;65929;49.062;10.338;2023-07-29T01:46:36;8.60;;;4.18;;
76995;SDS011;65929;49.062;10.338;2023-07-29T01:47:37;6.10;;;3.92;;
76995;SDS011;65929;49.062;10.338;2023-07-29T01:48:40;6.15;;;4.20;;
76995;SDS011;65929;49.062;10.338;2023-07-29T01:49:41;6.13;;;3.63;;
76995;SDS011;65929;49.062;10.338;2023-07-29T01:50:42;5.28;;;3.72;;
76995;SDS011;65929;49.062;10.338;2023-07-29T01:51:43;5.38;;;3.50;;
76995;SDS011;65929;49.062;10.338;2023-07-29T01:52:44;6.88;;;4.07;;
76995;SDS011;65929;49.062;10.338;2023-07-29T01:53:45;6.97;;;3.92;;
76995;SDS011;65929;49.062;10.338;2023-07-29T01:54:47;5.78;;;3.42;;
76995;SDS011;65929;49.062;10.338;2023-07-29T01:55:50;5.35;;;3.78;;
76995;SDS011;65929;49.062;10.338;2023-07-29T01:56:51;5.38;;;3.70;;
76995;SDS011;65929;49.062;10.338;2023-07-29T01:57:52;6.88;;;3.65;;
76995;SDS011;65929;49.062;10.338;2023-07-29T01:58:53;5.40;;;3.63;;
76995;SDS011;65929;49.062;10.338;2023-07-29T01:59:54;6.80;;;3.83;;
76995;SDS011;65929;49.062;10.338;2023-07-29T02:00:55;6.00;;;3.65;;
76995;SDS011;65929;49.062;10.338;2023-07-29T02:01:56;5.43;;;3.67;;
76995;SDS011;65929;49.062;10.338;2023-07-29T02:02:57;5.13;;;3.47;;
76995;SDS011;65929;49.062;10.338;2023-07-29T02:03:58;5.22;;;3.60;;
76995;SDS011;65929;49.062;10.338;2023-07-29T02:04:59;6.53;;;3.90;;
76995;SDS011;65929;49.062;10.338;2023-07-29T02:06:00;5.82;;;4.10;;
76995;SDS011;65929;49.062;10.338;2023-07-29T02:07:01;7.88;;;4.10;;
76995;SDS011;65929;49.062;10.338;2023-07-29T02:08:02;5.22;;;3.88;;
76995;SDS011;65929;49.062;10.338;2023-07-29T02:09:03;4.55;;;3.50;;
76995;SDS011;65929;49.062;10.338;2023-07-29T02:10:06;7.22;;;3.70;;
76995;SDS011;65929;49.062;10.338;2023-07-29T02:11:08;5.40;;;3.45;;
76995;SDS011;65929;49.062;10.338;2023-07-29T02:12:09;5.63;;;3.67;;
76995;SDS011;65929;49.062;10.338;2023-07-29T02:13:10;5.20;;;3.72;;
76995;SDS011;65929;49.062;10.338;2023-07-29T02:14:11;5.80;;;3.95;;
76995;SDS011;65929;49.062;10.338;2023-07-29T02:15:12;5.60;;;4.07;;
76995;SDS011;65929;49.062;10.338;2023-07-29T02:16:13;7.40;;;4.03;;
76995;SDS011;65929;49.062;10.338;2023-07-29T02:17:14;6.00;;;3.88;;
76995;SDS011;65929;49.062;10.338;2023-07-29T02:18:15;6.18;;;3.72;;
76995;SDS011;65929;49.062;10.338;2023-07-29T02:19:16;6.55;;;3.75;;
76995;SDS011;65929;49.062;10.338;2023-07-29T02:20:17;6.72;;;3.78;;
76995;SDS011;65929;49.062;10.338;2023-07-29T02:21:19;5.30;;;3.90;;
76995;SDS011;65929;49.062;10.338;2023-07-29T02:22:20;5.75;;;3.90;;
76995;SDS011;65929;49.062;10.338;2023-07-29T02:23:21;5.43;;;3.50;;
76995;SDS011;65929;49.062;10.338;2023-07-29T02:24:23;6.55;;;3.70;;
76995;SDS011;65929;49.062;10.338;2023-07-29T02:25:25;4.88;;;3.75;;
76995;SDS011;65929;49.062;10.338;2023-07-29T02:26:26;5.95;;;3.97;;
76995;SDS011;65929;49.062;10.338;2023-07-29T02:27:27;5.85;;;3.83;;
76995;SDS011;65929;49.062;10.338;2023-07-29T02:28:28;5.70;;;4.22;;
76995;SDS011;65929;49.062;10.338;2023-07-29T02:29:29;6.07;;;3.92;;
76995;SDS011;65929;49.062;10.338;2023-07-29T02:30:30;5.38;;;3.60;;
76995;SDS011;65929;49.062;10.338;2023-07-29T02:31:31;5.93;;;4.10;;
76995;SDS011;65929;49.062;10.338;2023-07-29T02:32:32;5.78;;;3.90;;
76995;SDS011;65929;49.062;10.338;2023-07-29T02:33:33;4.82;;;3.45;;
76995;SDS011;65929;49.062;10.338;2023-07-29T02:34:34;5.70;;;3.67;;
76995;SDS011;65929;49.062;10.338;2023-07-29T02:35:35;6.82;;;3.63;;
76995;SDS011;65929;49.062;10.338;2023-07-29T02:36:36;5.45;;;3.70;;
76995;SDS011;65929;49.062;10.338;2023-07-29T02:37:37;5.97;;;3.67;;
76995;SDS011;65929;49.062;10.338;2023-07-29T02:38:38;5.43;;;3.60;;
76995;SDS011;65929;49.062;10.338;2023-07-29T02:39:39;5.25;;;3.85;;
76995;SDS011;65929;49.062;10.338;2023-07-29T02:40:41;5.70;;;4.28;;
76995;SDS011;65929;49.062;10.338;2023-07-29T02:41:42;5.85;;;4.00;;
76995;SDS011;65929;49.062;10.338;2023-07-29T02:42:43;5.72;;;3.50;;
76995;SDS011;65929;49.062;10.338;2023-07-29T02:43:47;5.65;;;4.07;;
76995;SDS011;65929;49.062;10.338;2023-07-29T02:44:49;5.30;;;3.95;;
76995;SDS011;65929;49.062;10.338;2023-07-29T02:45:50;5.97;;;4.25;;
76995;SDS011;65929;49.062;10.338;2023-07-29T02:46:51;5.13;;;4.10;;
76995;SDS011;65929;49.062;10.338;2023-07-29T02:47:53;4.60;;;3.80;;
76995;SDS011;65929;49.062;10.338;2023-07-29T02:48:53;6.38;;;3.88;;
76995;SDS011;65929;49.062;10.338;2023-07-29T02:49:55;4.97;;;3.58;;
76995;SDS011;65929;49.062;10.338;2023-07-29T02:50:56;4.85;;;3.92;;
76995;SDS011;65929;49.062;10.338;2023-07-29T02:51:57;5.88;;;3.53;;
76995;SDS011;65929;49.062;10.338;2023-07-29T02:52:58;4.95;;;3.47;;
76995;SDS011;65929;49.062;10.338;2023-07-29T02:53:59;5.18;;;3.42;;
76995;SDS011;65929;49.062;10.338;2023-07-29T02:55:00;5.03;;;3.60;;
76995;SDS011;65929;49.062;10.338;2023-07-29T02:56:02;4.90;;;3.53;;
76995;SDS011;65929;49.062;10.338;2023-07-29T02:57:04;3.72;;;2.95;;
76995;SDS011;65929;49.062;10.338;2023-07-29T02:58:05;3.30;;;3.00;;
76995;SDS011;65929;49.062;10.338;2023-07-29T02:59:06;3.90;;;3.13;;
76995;SDS011;65929;49.062;10.338;2023-07-29T03:00:07;3.95;;;2.70;;
76995;SDS011;65929;49.062;10.338;2023-07-29T03:01:09;3.10;;;2.80;;
76995;SDS011;65929;49.062;10.338;2023-07-29T03:02:11;3.40;;;2.70;;
76995;SDS011;65929;49.062;10.338;2023-07-29T03:03:12;3.35;;;2.50;;
76995;SDS011;65929;49.062;10.338;2023-07-29T03:04:13;2.80;;;2.35;;
76995;SDS011;65929;49.062;10.338;2023-07-29T03:05:14;3.22;;;2.78;;
76995;SDS011;65929;49.062;10.338;2023-07-29T03:06:14;3.72;;;2.55;;
76995;SDS011;65929;49.062;10.338;2023-07-29T03:07:15;3.75;;;2.72;;
76995;SDS011;65929;49.062;10.338;2023-07-29T03:08:16;5.90;;;2.72;;
76995;SDS011;65929;49.062;10.338;2023-07-29T03:09:17;2.90;;;2.42;;
76995;SDS011;65929;49.062;10.338;2023-07-29T03:10:19;3.85;;;2.53;;
76995;SDS011;65929;49.062;10.338;2023-07-29T03:11:22;5.38;;;2.97;;
76995;SDS011;65929;49.062;10.338;2023-07-29T03:12:23;3.30;;;2.63;;
76995;SDS011;65929;49.062;10.338;2023-07-29T03:13:23;3.80;;;2.53;;
76995;SDS011;65929;49.062;10.338;2023-07-29T03:14:25;3.40;;;2.80;;
76995;SDS011;65929;49.062;10.338;2023-07-29T03:15:26;3.47;;;2.90;;
76995;SDS011;65929;49.062;10.338;2023-07-29T03:16:27;4.10;;;2.80;;
76995;SDS011;65929;49.062;10.338;2023-07-29T03:17:28;5.28;;;3.00;;
76995;SDS011;65929;49.062;10.338;2023-07-29T03:18:29;4.82;;;3.45;;
76995;SDS011;65929;49.062;10.338;2023-07-29T03:19:30;6.60;;;3.08;;
76995;SDS011;65929;49.062;10.338;2023-07-29T03:20:31;6.70;;;3.78;;
76995;SDS011;65929;49.062;10.338;2023-07-29T03:21:32;4.72;;;3.10;;
76995;SDS011;65929;49.062;10.338;2023-07-29T03:22:33;5.22;;;3.15;;
76995;SDS011;65929;49.062;10.338;2023-07-29T03:23:34;5.68;;;3.25;;
76995;SDS011;65929;49.062;10.338;2023-07-29T03:24:35;3.67;;;2.88;;
76995;SDS011;65929;49.062;10.338;2023-07-29T03:25:36;5.70;;;3.25;;
76995;SDS011;65929;49.062;10.338;2023-07-29T03:26:38;3.95;;;3.25;;
76995;SDS011;65929;49.062;10.338;2023-07-29T03:27:40;4.20;;;3.00;;
76995;SDS011;65929;49.062;10.338;2023-07-29T03:28:41;3.65;;;3.30;;
76995;SDS011;65929;49.062;10.338;2023-07-29T03:29:43;3.58;;;2.88;;
76995;SDS011;65929;49.062;10.338;2023-07-29T03:30:44;3.47;;;2.92;;
76995;SDS011;65929;49.062;10.338;2023-07-29T03:31:45;3.45;;;2.83;;
76995;SDS011;65929;49.062;10.338;2023-07-29T03:32:46;3.67;;;2.85;;
76995;SDS011;65929;49.062;10.338;2023-07-29T03:33:47;3.38;;;2.53;;
76995;SDS011;65929;49.062;10.338;2023-07-29T03:34:47;3.15;;;2.30;;
76995;SDS011;65929;49.062;10.338;2023-07-29T03:35:49;2.67;;;2.35;;
76995;SDS011;65929;49.062;10.338;2023-07-29T03:36:49;2.50;;;2.30;;
76995;SDS011;65929;49.062;10.338;2023-07-29T03:37:51;2.30;;;2.10;;
76995;SDS011;65929;49.062;10.338;2023-07-29T03:38:52;2.25;;;1.85;;
76995;SDS011;65929;49.062;10.338;2023-07-29T03:39:54;2.45;;;2.05;;
76995;SDS011;65929;49.062;10.338;2023-07-29T03:40:54;2.95;;;2.10;;
76995;SDS011;65929;49.062;10.338;2023-07-29T03:41:57;4.82;;;2.30;;
76995;SDS011;65929;49.062;10.338;2023-07-29T03:42:58;4.60;;;2.28;;
76995;SDS011;65929;49.062;10.338;2023-07-29T03:43:59;3.00;;;2.20;;
76995;SDS011;65929;49.062;10.338;2023-07-29T03:45:00;4.13;;;2.10;;
76995;SDS011;65929;49.062;10.338;2023-07-29T03:46:01;2.70;;;2.10;;
76995;SDS011;65929;49.062;10.338;2023-07-29T03:47:02;4.13;;;2.20;;
76995;SDS011;65929;49.062;10.338;2023-07-29T03:48:03;2.90;;;2.33;;
76995;SDS011;65929;49.062;10.338;2023-07-29T03:49:04;2.10;;;1.90;;
76995;SDS011;65929;49.062;10.338;2023-07-29T03:50:06;3.50;;;2.05;;
76995;SDS011;65929;49.062;10.338;2023-07-29T03:51:07;2.42;;;2.20;;
76995;SDS011;65929;49.062;10.338;2023-07-29T03:52:08;2.72;;;2.22;;
76995;SDS011;65929;49.062;10.338;2023-07-29T03:53:10;3.17;;;2.08;;
76995;SDS011;65929;49.062;10.338;2023-07-29T03:54:11;2.35;;;1.80;;
76995;SDS011;65929;49.062;10.338;2023-07-29T03:55:12;3.70;;;1.80;;
76995;SDS011;65929;49.062;10.338;2023-07-29T03:56:13;3.03;;;2.13;;
76995;SDS011;65929;49.062;10.338;2023-07-29T03:57:15;2.58;;;1.83;;
76995;SDS011;65929;49.062;10.338;2023-07-29T03:58:16;2.80;;;2.00;;
76995;SDS011;65929;49.062;10.338;2023-07-29T03:59:17;5.68;;;1.90;;
76995;SDS011;65929;49.062;10.338;2023-07-29T04:00:18;6.10;;;2.33;;
76995;SDS011;65929;49.062;10.338;2023-07-29T04:01:19;3.47;;;2.03;;
76995;SDS011;65929;49.062;10.338;2023-07-29T04:02:20;3.55;;;2.33;;
76995;SDS011;65929;49.062;10.338;2023-07-29T04:03:21;2.20;;;1.92;;
76995;SDS011;65929;49.062;10.338;2023-07-29T04:04:22;3.67;;;1.92;;
76995;SDS011;65929;49.062;10.338;2023-07-29T04:05:23;5.00;;;2.15;;
76995;SDS011;65929;49.062;10.338;2023-07-29T04:06:24;4.03;;;1.90;;
76995;SDS011;65929;49.062;10.338;2023-07-29T04:07:25;3.05;;;2.25;;
76995;SDS011;65929;49.062;10.338;2023-07-29T04:08:26;3.08;;;2.33;;
76995;SDS011;65929;49.062;10.338;2023-07-29T04:09:27;2.33;;;2.13;;
76995;SDS011;65929;49.062;10.338;2023-07-29T04:10:28;2.38;;;2.05;;
76995;SDS011;65929;49.062;10.338;2023-07-29T04:11:31;2.50;;;2.10;;
76995;SDS011;65929;49.062;10.338;2023-07-29T04:12:34;2.97;;;2.13;;
76995;SDS011;65929;49.062;10.338;2023-07-29T04:13:35;3.28;;;2.20;;
76995;SDS011;65929;49.062;10.338;2023-07-29T04:14:37;4.30;;;1.88;;
76995;SDS011;65929;49.062;10.338;2023-07-29T04:15:38;3.13;;;2.17;;
76995;SDS011;65929;49.062;10.338;2023-07-29T04:16:39;3.10;;;2.00;;
76995;SDS011;65929;49.062;10.338;2023-07-29T04:17:40;2.72;;;1.83;;
76995;SDS011;65929;49.062;10.338;2023-07-29T04:18:41;1.95;;;1.80;;
76995;SDS011;65929;49.062;10.338;2023-07-29T04:19:42;2.58;;;2.00;;
76995;SDS011;65929;49.062;10.338;2023-07-29T04:20:43;3.25;;;1.80;;
76995;SDS011;65929;49.062;10.338;2023-07-29T04:21:44;3.25;;;2.15;;
76995;SDS011;65929;49.062;10.338;2023-07-29T04:22:46;8.20;;;2.38;;
76995;SDS011;65929;49.062;10.338;2023-07-29T04:23:47;1.92;;;1.80;;
76995;SDS011;65929;49.062;10.338;2023-07-29T04:24:48;3.75;;;1.83;;
76995;SDS011;65929;49.062;10.338;2023-07-29T04:25:49;3.00;;;1.88;;
76995;SDS011;65929;49.062;10.338;2023-07-29T04:26:50;2.17;;;1.98;;
76995;SDS011;65929;49.062;10.338;2023-07-29T04:27:52;2.90;;;2.00;;
76995;SDS011;65929;49.062;10.338;2023-07-29T04:28:54;4.85;;;2.20;;
76995;SDS011;65929;49.062;10.338;2023-07-29T04:29:55;2.47;;;2.03;;
76995;SDS011;65929;49.062;10.338;2023-07-29T04:30:56;2.45;;;2.00;;
76995;SDS011;65929;49.062;10.338;2023-07-29T04:31:57;2.13;;;2.00;;
76995;SDS011;65929;49.062;10.338;2023-07-29T04:32:58;3.35;;;2.00;;
76995;SDS011;65929;49.062;10.338;2023-07-29T04:33:59;4.38;;;1.90;;
76995;SDS011;65929;49.062;10.338;2023-07-29T04:35:00;5.55;;;2.55;;
76995;SDS011;65929;49.062;10.338;2023-07-29T04:36:01;3.70;;;2.33;;
76995;SDS011;65929;49.062;10.338;2023-07-29T04:37:03;4.80;;;2.35;;
76995;SDS011;65929;49.062;10.338;2023-07-29T04:38:04;3.63;;;2.58;;
76995;SDS011;65929;49.062;10.338;2023-07-29T04:39:05;2.75;;;2.00;;
76995;SDS011;65929;49.062;10.338;2023-07-29T04:40:06;2.28;;;2.05;;
76995;SDS011;65929;49.062;10.338;2023-07-29T04:41:08;2.95;;;2.40;;
76995;SDS011;65929;49.062;10.338;2023-07-29T04:42:09;6.10;;;2.30;;
76995;SDS011;65929;49.062;10.338;2023-07-29T04:43:11;3.47;;;2.03;;
76995;SDS011;65929;49.062;10.338;2023-07-29T04:44:12;3.28;;;2.50;;
76995;SDS011;65929;49.062;10.338;2023-07-29T04:45:13;4.25;;;2.22;;
76995;SDS011;65929;49.062;10.338;2023-07-29T04:46:14;4.07;;;2.50;;
76995;SDS011;65929;49.062;10.338;2023-07-29T04:47:15;2.58;;;2.05;;
76995;SDS011;65929;49.062;10.338;2023-07-29T04:48:16;2.50;;;2.08;;
76995;SDS011;65929;49.062;10.338;2023-07-29T04:49:17;2.85;;;2.15;;
76995;SDS011;65929;49.062;10.338;2023-07-29T04:50:18;3.05;;;2.40;;
76995;SDS011;65929;49.062;10.338;2023-07-29T04:51:19;2.88;;;2.17;;
76995;SDS011;65929;49.062;10.338;2023-07-29T04:52:20;5.00;;;2.30;;
76995;SDS011;65929;49.062;10.338;2023-07-29T04:53:22;3.70;;;2.03;;
76995;SDS011;65929;49.062;10.338;2023-07-29T04:54:22;3.38;;;2.03;;
76995;SDS011;65929;49.062;10.338;2023-07-29T04:55:23;3.45;;;2.63;;
76995;SDS011;65929;49.062;10.338;2023-07-29T04:56:24;5.80;;;2.97;;
76995;SDS011;65929;49.062;10.338;2023-07-29T04:57:26;3.75;;;2.08;;
76995;SDS011;65929;49.062;10.338;2023-07-29T04:58:28;2.70;;;2.20;;
76995;SDS011;65929;49.062;10.338;2023-07-29T04:59:29;3.03;;;2.10;;
76995;SDS011;65929;49.062;10.338;2023-07-29T05:00:30;4.03;;;2.17;;
76995;SDS011;65929;49.062;10.338;2023-07-29T05:01:31;2.03;;;1.83;;
76995;SDS011;65929;49.062;10.338;2023-07-29T05:02:32;3.67;;;1.90;;
76995;SDS011;65929;49.062;10.338;2023-07-29T05:03:33;3.70;;;2.10;;
76995;SDS011;65929;49.062;10.338;2023-07-29T05:04:34;3.85;;;2.60;;
76995;SDS011;65929;49.062;10.338;2023-07-29T05:05:35;2.40;;;2.15;;
76995;SDS011;65929;49.062;10.338;2023-07-29T05:06:37;4.07;;;2.38;;
76995;SDS011;65929;49.062;10.338;2023-07-29T05:07:40;3.40;;;2.30;;
76995;SDS011;65929;49.062;10.338;2023-07-29T05:08:41;3.88;;;2.35;;
76995;SDS011;65929;49.062;10.338;2023-07-29T05:09:42;3.75;;;2.13;;
76995;SDS011;65929;49.062;10.338;2023-07-29T05:10:43;3.88;;;2.47;;
76995;SDS011;65929;49.062;10.338;2023-07-29T05:11:44;3.92;;;2.28;;
76995;SDS011;65929;49.062;10.338;2023-07-29T05:12:46;2.40;;;2.08;;
76995;SDS011;65929;49.062;10.338;2023-07-29T05:13:48;2.80;;;2.25;;
76995;SDS011;65929;49.062;10.338;2023-07-29T05:14:49;3.85;;;2.25;;
76995;SDS011;65929;49.062;10.338;2023-07-29T05:15:50;3.55;;;2.60;;
76995;SDS011;65929;49.062;10.338;2023-07-29T05:16:51;4.50;;;2.65;;
76995;SDS011;65929;49.062;10.338;2023-07-29T05:17:52;3.58;;;2.28;;
76995;SDS011;65929;49.062;10.338;2023-07-29T05:18:53;3.67;;;2.17;;
76995;SDS011;65929;49.062;10.338;2023-07-29T05:19:54;3.63;;;2.40;;
76995;SDS011;65929;49.062;10.338;2023-07-29T05:20:56;2.55;;;2.10;;
76995;SDS011;65929;49.062;10.338;2023-07-29T05:21:57;3.17;;;2.03;;
76995;SDS011;65929;49.062;10.338;2023-07-29T05:22:58;3.20;;;2.28;;
76995;SDS011;65929;49.062;10.338;2023-07-29T05:23:59;3.30;;;2.10;;
76995;SDS011;65929;49.062;10.338;2023-07-29T05:25:00;4.65;;;2.33;;
76995;SDS011;65929;49.062;10.338;2023-07-29T05:26:01;3.67;;;2.05;;
76995;SDS011;65929;49.062;10.338;2023-07-29T05:27:02;7.90;;;2.42;;
76995;SDS011;65929;49.062;10.338;2023-07-29T05:28:03;4.45;;;1.98;;
76995;SDS011;65929;49.062;10.338;2023-07-29T05:29:06;2.92;;;1.92;;
76995;SDS011;65929;49.062;10.338;2023-07-29T05:30:07;5.00;;;2.33;;
76995;SDS011;65929;49.062;10.338;2023-07-29T05:31:08;7.22;;;2.40;;
76995;SDS011;65929;49.062;10.338;2023-07-29T05:32:09;4.88;;;2.20;;
76995;SDS011;65929;49.062;10.338;2023-07-29T05:33:10;3.88;;;2.30;;
76995;SDS011;65929;49.062;10.338;2023-07-29T05:34:11;5.18;;;2.10;;
76995;SDS011;65929;49.062;10.338;2023-07-29T05:35:12;3.22;;;2.35;;
76995;SDS011;65929;49.062;10.338;2023-07-29T05:36:14;3.70;;;2.28;;
76995;SDS011;65929;49.062;10.338;2023-07-29T05:37:15;5.05;;;2.50;;
76995;SDS011;65929;49.062;10.338;2023-07-29T05:38:16;5.30;;;2.50;;
76995;SDS011;65929;49.062;10.338;2023-07-29T05:39:17;6.00;;;2.22;;
76995;SDS011;65929;49.062;10.338;2023-07-29T05:40:24;4.22;;;2.28;;
76995;SDS011;65929;49.062;10.338;2023-07-29T05:41:28;3.65;;;2.40;;
76995;SDS011;65929;49.062;10.338;2023-07-29T05:42:29;6.10;;;2.47;;
76995;SDS011;65929;49.062;10.338;2023-07-29T05:43:30;4.57;;;2.70;;
76995;SDS011;65929;49.062;10.338;2023-07-29T05:44:32;4.20;;;2.63;;
76995;SDS011;65929;49.062;10.338;2023-07-29T05:45:33;3.35;;;2.08;;
76995;SDS011;65929;49.062;10.338;2023-07-29T05:46:34;4.03;;;2.33;;
76995;SDS011;65929;49.062;10.338;2023-07-29T05:47:35;5.13;;;2.15;;
76995;SDS011;65929;49.062;10.338;2023-07-29T05:48:36;4.18;;;2.17;;
76995;SDS011;65929;49.062;10.338;2023-07-29T05:49:37;3.47;;;2.20;;
76995;SDS011;65929;49.062;10.338;2023-07-29T05:50:38;3.28;;;2.17;;
76995;SDS011;65929;49.062;10.338;2023-07-29T05:51:39;4.82;;;2.20;;
76995;SDS011;65929;49.062;10.338;2023-07-29T05:52:41;2.92;;;2.00;;
76995;SDS011;65929;49.062;10.338;2023-07-29T05:53:42;2.90;;;2.40;;
76995;SDS011;65929;49.062;10.338;2023-07-29T05:54:43;3.70;;;2.47;;
76995;SDS011;65929;49.062;10.338;2023-07-29T05:55:44;4.10;;;2.08;;
76995;SDS011;65929;49.062;10.338;2023-07-29T05:56:45;3.15;;;2.40;;
76995;SDS011;65929;49.062;10.338;2023-07-29T05:57:46;4.13;;;2.00;;
76995;SDS011;65929;49.062;10.338;2023-07-29T05:58:47;3.33;;;2.30;;
76995;SDS011;65929;49.062;10.338;2023-07-29T05:59:49;4.38;;;2.20;;
76995;SDS011;65929;49.062;10.338;2023-07-29T06:00:50;3.33;;;2.30;;
76995;SDS011;65929;49.062;10.338;2023-07-29T06:01:51;4.45;;;2.10;;
76995;SDS011;65929;49.062;10.338;2023-07-29T06:02:52;3.25;;;1.88;;
76995;SDS011;65929;49.062;10.338;2023-07-29T06:03:53;4.10;;;2.15;;
76995;SDS011;65929;49.062;10.338;2023-07-29T06:04:54;4.43;;;2.47;;
76995;SDS011;65929;49.062;10.338;2023-07-29T06:05:55;3.65;;;2.40;;